sensor_id;sensor_type;location;lat;lon;timestamp;pressure;altitude;pressure_sealevel;temperature
67509;BMP280;54354;44.724;11.284;2024-02-21T00:00:52;102531.06;;;14.65
67509;BMP280;54354;44.724;11.284;2024-02-21T00:03:18;102527.25;;;14.63
67509;BMP280;54354;44.724;11.284;2024-02-21T00:05:43;102522.69;;;14.63
67509;BMP280;54354;44.724;11.284;2024-02-21T00:08:09;102520.41;;;14.62
67509;BMP280;54354;44.724;11.284;2024-02-21T00:10:34;102520.44;;;14.58
67509;BMP280;54354;44.724;11.284;2024-02-21T00:13:01;102504.09;;;14.49
67509;BMP280;54354;44.724;11.284;2024-02-21T00:15:26;102513.25;;;14.44
67509;BMP280;54354;44.724;11.284;2024-02-21T00:17:52;102508.69;;;14.38
67509;BMP280;54354;44.724;11.284;2024-02-21T00:20:18;102506.06;;;14.34
67509;BMP280;54354;44.724;11.284;2024-02-21T00:22:44;102500.38;;;14.25
67509;BMP280;54354;44.724;11.284;2024-02-21T00:25:10;102501.91;;;14.22
67509;BMP280;54354;44.724;11.284;2024-02-21T00:27:35;102498.84;;;14.20
67509;BMP280;54354;44.724;11.284;2024-02-21T00:30:01;102491.66;;;14.17
67509;BMP280;54354;44.724;11.284;2024-02-21T00:32:27;102500.75;;;14.20
67509;BMP280;54354;44.724;11.284;2024-02-21T00:34:52;102495.81;;;14.18
67509;BMP280;54354;44.724;11.284;2024-02-21T00:37:18;102500.03;;;14.16
67509;BMP280;54354;44.724;11.284;2024-02-21T00:39:43;102500.00;;;14.12
67509;BMP280;54354;44.724;11.284;2024-02-21T00:42:09;102501.94;;;14.08
67509;BMP280;54354;44.724;11.284;2024-02-21T00:44:34;102493.97;;;14.04
67509;BMP280;54354;44.724;11.284;2024-02-21T00:47:00;102487.50;;;14.05
67509;BMP280;54354;44.724;11.284;2024-02-21T00:49:25;102490.53;;;14.08
67509;BMP280;54354;44.724;11.284;2024-02-21T00:51:51;102491.66;;;14.06
67509;BMP280;54354;44.724;11.284;2024-02-21T00:54:16;102498.88;;;14.06
67509;BMP280;54354;44.724;11.284;2024-02-21T00:56:43;102493.59;;;13.99
67509;BMP280;54354;44.724;11.284;2024-02-21T00:59:08;102495.88;;;13.93
67509;BMP280;54354;44.724;11.284;2024-02-21T01:01:34;102501.22;;;13.90
67509;BMP280;54354;44.724;11.284;2024-02-21T01:03:59;102505.78;;;13.86
67509;BMP280;54354;44.724;11.284;2024-02-21T01:06:25;102502.38;;;13.85
67509;BMP280;54354;44.724;11.284;2024-02-21T01:08:51;102503.50;;;13.88
67509;BMP280;54354;44.724;11.284;2024-02-21T01:11:16;102504.28;;;13.92
67509;BMP280;54354;44.724;11.284;2024-02-21T01:13:42;102494.72;;;13.94
67509;BMP280;54354;44.724;11.284;2024-02-21T01:16:08;102495.13;;;13.96
67509;BMP280;54354;44.724;11.284;2024-02-21T01:18:34;102493.97;;;13.94
67509;BMP280;54354;44.724;11.284;2024-02-21T01:21:00;102490.19;;;13.91
67509;BMP280;54354;44.724;11.284;2024-02-21T01:23:26;102486.75;;;13.87
67509;BMP280;54354;44.724;11.284;2024-02-21T01:25:51;102489.81;;;13.86
67509;BMP280;54354;44.724;11.284;2024-02-21T01:28:18;102470.03;;;13.83
67509;BMP280;54354;44.724;11.284;2024-02-21T01:30:43;102484.50;;;13.89
67509;BMP280;54354;44.724;11.284;2024-02-21T01:33:09;102484.84;;;13.88
67509;BMP280;54354;44.724;11.284;2024-02-21T01:35:35;102474.59;;;13.79
67509;BMP280;54354;44.724;11.284;2024-02-21T01:38:01;102480.69;;;13.76
67509;BMP280;54354;44.724;11.284;2024-02-21T01:40:27;102476.13;;;13.73
67509;BMP280;54354;44.724;11.284;2024-02-21T01:42:55;102475.38;;;13.69
67509;BMP280;54354;44.724;11.284;2024-02-21T01:45:21;102485.66;;;13.77
67509;BMP280;54354;44.724;11.284;2024-02-21T01:47:47;102479.16;;;13.75
67509;BMP280;54354;44.724;11.284;2024-02-21T01:50:14;102484.53;;;13.68
67509;BMP280;54354;44.724;11.284;2024-02-21T01:52:42;102475.38;;;13.58
67509;BMP280;54354;44.724;11.284;2024-02-21T01:55:10;102475.78;;;13.53
67509;BMP280;54354;44.724;11.284;2024-02-21T01:57:36;102478.41;;;13.49
67509;BMP280;54354;44.724;11.284;2024-02-21T02:00:06;102469.69;;;13.45
67509;BMP280;54354;44.724;11.284;2024-02-21T02:02:37;102470.81;;;13.41
67509;BMP280;54354;44.724;11.284;2024-02-21T02:05:04;102486.78;;;13.37
67509;BMP280;54354;44.724;11.284;2024-02-21T02:07:31;102483.38;;;13.37
67509;BMP280;54354;44.724;11.284;2024-02-21T02:09:57;102483.38;;;13.33
67509;BMP280;54354;44.724;11.284;2024-02-21T02:12:22;102490.97;;;13.31
67509;BMP280;54354;44.724;11.284;2024-02-21T02:15:02;102471.97;;;13.22
67509;BMP280;54354;44.724;11.284;2024-02-21T02:17:31;102484.91;;;13.27
67509;BMP280;54354;44.724;11.284;2024-02-21T02:19:56;102482.22;;;13.20
67509;BMP280;54354;44.724;11.284;2024-02-21T02:22:28;102467.75;;;13.07
67509;BMP280;54354;44.724;11.284;2024-02-21T02:24:54;102478.75;;;13.05
67509;BMP280;54354;44.724;11.284;2024-02-21T02:27:20;102479.91;;;13.01
67509;BMP280;54354;44.724;11.284;2024-02-21T02:29:45;102485.59;;;12.95
67509;BMP280;54354;44.724;11.284;2024-02-21T02:32:12;102479.09;;;12.89
67509;BMP280;54354;44.724;11.284;2024-02-21T02:34:37;102476.47;;;12.86
67509;BMP280;54354;44.724;11.284;2024-02-21T02:37:03;102479.84;;;12.83
67509;BMP280;54354;44.724;11.284;2024-02-21T02:39:28;102476.06;;;12.80
67509;BMP280;54354;44.724;11.284;2024-02-21T02:41:54;102477.19;;;12.76
67509;BMP280;54354;44.724;11.284;2024-02-21T02:44:19;102476.06;;;12.73
67509;BMP280;54354;44.724;11.284;2024-02-21T02:46:45;102474.88;;;12.70
67509;BMP280;54354;44.724;11.284;2024-02-21T02:49:10;102480.22;;;12.67
67509;BMP280;54354;44.724;11.284;2024-02-21T02:51:36;102484.38;;;12.64
67509;BMP280;54354;44.724;11.284;2024-02-21T02:54:02;102479.41;;;12.63
67509;BMP280;54354;44.724;11.284;2024-02-21T02:56:28;102479.41;;;12.63
67509;BMP280;54354;44.724;11.284;2024-02-21T02:58:53;102469.91;;;12.62
67509;BMP280;54354;44.724;11.284;2024-02-21T03:01:19;102462.69;;;12.62
67509;BMP280;54354;44.724;11.284;2024-02-21T03:03:44;102468.44;;;12.61
67509;BMP280;54354;44.724;11.284;2024-02-21T03:06:12;102465.72;;;12.54
67509;BMP280;54354;44.724;11.284;2024-02-21T03:08:38;102469.88;;;12.51
67509;BMP280;54354;44.724;11.284;2024-02-21T03:11:05;102469.47;;;12.45
67509;BMP280;54354;44.724;11.284;2024-02-21T03:13:30;102462.22;;;12.39
67509;BMP280;54354;44.724;11.284;2024-02-21T03:15:56;102459.19;;;12.37
67509;BMP280;54354;44.724;11.284;2024-02-21T03:18:21;102463.72;;;12.36
67509;BMP280;54354;44.724;11.284;2024-02-21T03:20:47;102469.44;;;12.31
67509;BMP280;54354;44.724;11.284;2024-02-21T03:23:12;102460.28;;;12.29
67509;BMP280;54354;44.724;11.284;2024-02-21T03:25:38;102451.19;;;12.26
67509;BMP280;54354;44.724;11.284;2024-02-21T03:28:03;102458.75;;;12.24
67509;BMP280;54354;44.724;11.284;2024-02-21T03:30:29;102456.47;;;12.23
67509;BMP280;54354;44.724;11.284;2024-02-21T03:32:54;102459.16;;;12.26
67509;BMP280;54354;44.724;11.284;2024-02-21T03:35:20;102458.75;;;12.24
67509;BMP280;54354;44.724;11.284;2024-02-21T03:37:45;102461.41;;;12.24
67509;BMP280;54354;44.724;11.284;2024-02-21T03:40:11;102464.47;;;12.26
67509;BMP280;54354;44.724;11.284;2024-02-21T03:42:37;102464.81;;;12.25
67509;BMP280;54354;44.724;11.284;2024-02-21T03:45:03;102464.44;;;12.19
67509;BMP280;54354;44.724;11.284;2024-02-21T03:47:29;102462.91;;;12.18
67509;BMP280;54354;44.724;11.284;2024-02-21T03:49:54;102466.72;;;12.24
67509;BMP280;54354;44.724;11.284;2024-02-21T03:52:20;102462.94;;;12.29
67509;BMP280;54354;44.724;11.284;2024-02-21T03:54:45;102470.19;;;12.32
67509;BMP280;54354;44.724;11.284;2024-02-21T03:57:11;102462.56;;;12.27
67509;BMP280;54354;44.724;11.284;2024-02-21T03:59:36;102474.75;;;12.31
67509;BMP280;54354;44.724;11.284;2024-02-21T04:02:04;102493.75;;;12.37
67509;BMP280;54354;44.724;11.284;2024-02-21T04:04:34;102478.19;;;12.39
67509;BMP280;54354;44.724;11.284;2024-02-21T04:07:00;102478.19;;;12.39
67509;BMP280;54354;44.724;11.284;2024-02-21T04:09:26;102475.88;;;12.34
67509;BMP280;54354;44.724;11.284;2024-02-21T04:11:51;102481.56;;;12.32
67509;BMP280;54354;44.724;11.284;2024-02-21T04:14:17;102486.13;;;12.35
67509;BMP280;54354;44.724;11.284;2024-02-21T04:16:42;102492.94;;;12.36
67509;BMP280;54354;44.724;11.284;2024-02-21T04:19:08;102486.88;;;12.36
67509;BMP280;54354;44.724;11.284;2024-02-21T04:21:34;102482.31;;;12.33
67509;BMP280;54354;44.724;11.284;2024-02-21T04:24:00;102488.41;;;12.33
67509;BMP280;54354;44.724;11.284;2024-02-21T04:26:27;102486.50;;;12.34
67509;BMP280;54354;44.724;11.284;2024-02-21T04:28:52;102498.59;;;12.24
67509;BMP280;54354;44.724;11.284;2024-02-21T04:31:18;102488.34;;;12.23
67509;BMP280;54354;44.724;11.284;2024-02-21T04:33:43;102479.97;;;12.20
67509;BMP280;54354;44.724;11.284;2024-02-21T04:36:09;102485.28;;;12.17
67509;BMP280;54354;44.724;11.284;2024-02-21T04:38:34;102484.88;;;12.11
67509;BMP280;54354;44.724;11.284;2024-02-21T04:41:00;102484.50;;;12.13
67509;BMP280;54354;44.724;11.284;2024-02-21T04:43:25;102486.00;;;12.10
67509;BMP280;54354;44.724;11.284;2024-02-21T04:45:51;102486.31;;;12.05
67509;BMP280;54354;44.724;11.284;2024-02-21T04:48:19;102476.09;;;12.04
67509;BMP280;54354;44.724;11.284;2024-02-21T04:50:44;102483.66;;;12.02
67509;BMP280;54354;44.724;11.284;2024-02-21T04:53:10;102487.09;;;12.06
67509;BMP280;54354;44.724;11.284;2024-02-21T04:55:35;102474.97;;;12.05
67509;BMP280;54354;44.724;11.284;2024-02-21T04:58:00;102482.53;;;12.06
67509;BMP280;54354;44.724;11.284;2024-02-21T05:00:27;102483.25;;;12.00
67509;BMP280;54354;44.724;11.284;2024-02-21T05:02:53;102479.47;;;11.97
67509;BMP280;54354;44.724;11.284;2024-02-21T05:05:18;102490.47;;;11.96
67509;BMP280;54354;44.724;11.284;2024-02-21T05:07:44;102483.97;;;11.93
67509;BMP280;54354;44.724;11.284;2024-02-21T05:10:10;102484.31;;;11.88
67509;BMP280;54354;44.724;11.284;2024-02-21T05:12:36;102487.75;;;11.88
67509;BMP280;54354;44.724;11.284;2024-02-21T05:15:02;102494.19;;;11.91
67509;BMP280;54354;44.724;11.284;2024-02-21T05:17:28;102496.44;;;11.85
67509;BMP280;54354;44.724;11.284;2024-02-21T05:19:53;102490.00;;;11.86
67509;BMP280;54354;44.724;11.284;2024-02-21T05:22:19;102496.13;;;11.90
67509;BMP280;54354;44.724;11.284;2024-02-21T05:24:44;102484.31;;;11.91
67509;BMP280;54354;44.724;11.284;2024-02-21T05:27:10;102487.03;;;11.95
67509;BMP280;54354;44.724;11.284;2024-02-21T05:29:35;102489.31;;;11.97
67509;BMP280;54354;44.724;11.284;2024-02-21T05:32:01;102484.00;;;11.97
67509;BMP280;54354;44.724;11.284;2024-02-21T05:34:27;102493.06;;;11.92
67509;BMP280;54354;44.724;11.284;2024-02-21T05:36:53;102501.00;;;11.88
67509;BMP280;54354;44.724;11.284;2024-02-21T05:39:19;102493.41;;;11.87
67509;BMP280;54354;44.724;11.284;2024-02-21T05:41:45;102504.44;;;11.89
67509;BMP280;54354;44.724;11.284;2024-02-21T05:44:11;102492.28;;;11.91
67509;BMP280;54354;44.724;11.284;2024-02-21T05:46:37;102492.28;;;11.88
67509;BMP280;54354;44.724;11.284;2024-02-21T05:49:02;102509.00;;;11.92
67509;BMP280;54354;44.724;11.284;2024-02-21T05:51:32;102498.69;;;11.83
67509;BMP280;54354;44.724;11.284;2024-02-21T05:53:58;102492.69;;;11.90
67509;BMP280;54354;44.724;11.284;2024-02-21T05:56:23;102496.81;;;11.84
67509;BMP280;54354;44.724;11.284;2024-02-21T05:58:49;102502.88;;;11.81
67509;BMP280;54354;44.724;11.284;2024-02-21T06:01:14;102502.03;;;11.73
67509;BMP280;54354;44.724;11.284;2024-02-21T06:03:40;102499.72;;;11.68
67509;BMP280;54354;44.724;11.284;2024-02-21T06:06:06;102497.03;;;11.64
67509;BMP280;54354;44.724;11.284;2024-02-21T06:08:31;102498.16;;;11.63
67509;BMP280;54354;44.724;11.284;2024-02-21T06:10:56;102504.97;;;11.64
67509;BMP280;54354;44.724;11.284;2024-02-21T06:13:23;102495.84;;;11.62
67509;BMP280;54354;44.724;11.284;2024-02-21T06:15:49;102497.03;;;11.64
67509;BMP280;54354;44.724;11.284;2024-02-21T06:18:17;102497.41;;;11.63
67509;BMP280;54354;44.724;11.284;2024-02-21T06:20:42;102511.78;;;11.62
67509;BMP280;54354;44.724;11.284;2024-02-21T06:23:08;102505.34;;;11.63
67509;BMP280;54354;44.724;11.284;2024-02-21T06:25:34;102505.41;;;11.66
67509;BMP280;54354;44.724;11.284;2024-02-21T06:27:59;102506.94;;;11.71
67509;BMP280;54354;44.724;11.284;2024-02-21T06:30:25;102520.56;;;11.69
67509;BMP280;54354;44.724;11.284;2024-02-21T06:32:51;102533.50;;;11.71
67509;BMP280;54354;44.724;11.284;2024-02-21T06:35:16;102525.91;;;11.73
67509;BMP280;54354;44.724;11.284;2024-02-21T06:37:42;102535.44;;;11.78
67509;BMP280;54354;44.724;11.284;2024-02-21T06:40:07;102532.81;;;11.81
67509;BMP280;54354;44.724;11.284;2024-02-21T06:42:33;102536.66;;;11.87
67509;BMP280;54354;44.724;11.284;2024-02-21T06:44:59;102539.78;;;11.97
67509;BMP280;54354;44.724;11.284;2024-02-21T06:47:24;102538.69;;;12.05
67509;BMP280;54354;44.724;11.284;2024-02-21T06:49:50;102534.53;;;12.07
67509;BMP280;54354;44.724;11.284;2024-02-21T06:52:19;102536.81;;;12.12
67509;BMP280;54354;44.724;11.284;2024-02-21T06:54:48;102538.41;;;12.20
67509;BMP280;54354;44.724;11.284;2024-02-21T06:57:14;102545.66;;;12.27
67509;BMP280;54354;44.724;11.284;2024-02-21T06:59:41;102541.53;;;12.33
67509;BMP280;54354;44.724;11.284;2024-02-21T07:02:07;102554.06;;;12.33
67509;BMP280;54354;44.724;11.284;2024-02-21T07:04:33;102544.59;;;12.39
67509;BMP280;54354;44.724;11.284;2024-02-21T07:06:58;102538.94;;;12.40
67509;BMP280;54354;44.724;11.284;2024-02-21T07:09:24;102547.66;;;12.44
67509;BMP280;54354;44.724;11.284;2024-02-21T07:11:49;102550.00;;;12.53
67509;BMP280;54354;44.724;11.284;2024-02-21T07:14:15;102532.16;;;12.57
67509;BMP280;54354;44.724;11.284;2024-02-21T07:16:43;102529.91;;;12.63
67509;BMP280;54354;44.724;11.284;2024-02-21T07:19:08;102547.44;;;12.78
67509;BMP280;54354;44.724;11.284;2024-02-21T07:21:34;102544.84;;;12.89
67509;BMP280;54354;44.724;11.284;2024-02-21T07:24:00;102549.81;;;12.94
67509;BMP280;54354;44.724;11.284;2024-02-21T07:26:25;102560.44;;;12.97
67509;BMP280;54354;44.724;11.284;2024-02-21T07:28:51;102570.38;;;13.08
67509;BMP280;54354;44.724;11.284;2024-02-21T07:31:16;102567.34;;;13.13
67509;BMP280;54354;44.724;11.284;2024-02-21T07:33:42;102576.88;;;13.28
67509;BMP280;54354;44.724;11.284;2024-02-21T07:36:09;102572.34;;;13.39
67509;BMP280;54354;44.724;11.284;2024-02-21T07:38:35;102568.16;;;13.52
67509;BMP280;54354;44.724;11.284;2024-02-21T07:41:01;102560.59;;;13.65
67509;BMP280;54354;44.724;11.284;2024-02-21T07:43:26;102563.22;;;13.76
67509;BMP280;54354;44.724;11.284;2024-02-21T07:45:52;102560.19;;;13.88
67509;BMP280;54354;44.724;11.284;2024-02-21T07:48:21;102572.34;;;14.00
67509;BMP280;54354;44.724;11.284;2024-02-21T07:50:50;102568.94;;;14.10
67509;BMP280;54354;44.724;11.284;2024-02-21T07:53:16;102573.47;;;14.24
67509;BMP280;54354;44.724;11.284;2024-02-21T07:55:41;102574.97;;;14.36
67509;BMP280;54354;44.724;11.284;2024-02-21T07:58:07;102579.88;;;14.48
67509;BMP280;54354;44.724;11.284;2024-02-21T08:00:33;102576.03;;;14.59
67509;BMP280;54354;44.724;11.284;2024-02-21T08:02:58;102575.63;;;14.68
67509;BMP280;54354;44.724;11.284;2024-02-21T08:05:24;102572.91;;;14.79
67509;BMP280;54354;44.724;11.284;2024-02-21T08:07:50;102572.88;;;14.86
67509;BMP280;54354;44.724;11.284;2024-02-21T08:10:15;102576.63;;;14.96
67509;BMP280;54354;44.724;11.284;2024-02-21T08:12:41;102580.00;;;15.07
67509;BMP280;54354;44.724;11.284;2024-02-21T08:15:07;102582.59;;;15.21
67509;BMP280;54354;44.724;11.284;2024-02-21T08:17:36;102574.13;;;15.33
67509;BMP280;54354;44.724;11.284;2024-02-21T08:20:02;102575.94;;;15.47
67509;BMP280;54354;44.724;11.284;2024-02-21T08:22:28;102582.72;;;15.59
67509;BMP280;54354;44.724;11.284;2024-02-21T08:24:53;102579.59;;;15.68
67509;BMP280;54354;44.724;11.284;2024-02-21T08:27:19;102579.53;;;15.75
67509;BMP280;54354;44.724;11.284;2024-02-21T08:29:44;102584.78;;;15.82
67509;BMP280;54354;44.724;11.284;2024-02-21T08:32:10;102589.69;;;15.90
67509;BMP280;54354;44.724;11.284;2024-02-21T08:34:35;102591.53;;;15.97
67509;BMP280;54354;44.724;11.284;2024-02-21T08:37:01;102591.13;;;15.99
67509;BMP280;54354;44.724;11.284;2024-02-21T08:39:26;102608.19;;;16.08
67509;BMP280;54354;44.724;11.284;2024-02-21T08:41:54;102596.72;;;16.11
67509;BMP280;54354;44.724;11.284;2024-02-21T08:44:19;102606.59;;;16.18
67509;BMP280;54354;44.724;11.284;2024-02-21T08:46:45;102598.16;;;16.23
67509;BMP280;54354;44.724;11.284;2024-02-21T08:49:12;102595.78;;;16.29
67509;BMP280;54354;44.724;11.284;2024-02-21T08:51:39;102604.16;;;16.31
67509;BMP280;54354;44.724;11.284;2024-02-21T08:54:04;102604.91;;;16.35
67509;BMP280;54354;44.724;11.284;2024-02-21T08:56:30;102598.38;;;16.36
67509;BMP280;54354;44.724;11.284;2024-02-21T08:58:56;102602.56;;;16.40
67509;BMP280;54354;44.724;11.284;2024-02-21T09:01:23;102607.00;;;16.51
67509;BMP280;54354;44.724;11.284;2024-02-21T09:03:49;102597.81;;;16.52
67509;BMP280;54354;44.724;11.284;2024-02-21T09:06:18;102593.50;;;16.61
67509;BMP280;54354;44.724;11.284;2024-02-21T09:08:45;102593.44;;;16.65
67509;BMP280;54354;44.724;11.284;2024-02-21T09:11:11;102592.63;;;16.68
67509;BMP280;54354;44.724;11.284;2024-02-21T09:13:37;102583.41;;;16.72
67509;BMP280;54354;44.724;11.284;2024-02-21T09:16:02;102582.22;;;16.77
67509;BMP280;54354;44.724;11.284;2024-02-21T09:18:29;102580.56;;;16.83
67509;BMP280;54354;44.724;11.284;2024-02-21T09:20:55;102585.13;;;16.86
67509;BMP280;54354;44.724;11.284;2024-02-21T09:23:20;102580.81;;;16.96
67509;BMP280;54354;44.724;11.284;2024-02-21T09:25:46;102578.38;;;17.05
67509;BMP280;54354;44.724;11.284;2024-02-21T09:28:12;102562.63;;;17.11
67509;BMP280;54354;44.724;11.284;2024-02-21T09:30:38;102566.34;;;17.17
67509;BMP280;54354;44.724;11.284;2024-02-21T09:33:04;102567.34;;;17.26
67509;BMP280;54354;44.724;11.284;2024-02-21T09:35:30;102560.00;;;17.30
67509;BMP280;54354;44.724;11.284;2024-02-21T09:37:59;102554.19;;;17.36
67509;BMP280;54354;44.724;11.284;2024-02-21T09:40:25;102561.75;;;17.41
67509;BMP280;54354;44.724;11.284;2024-02-21T09:43:00;102559.75;;;17.45
67509;BMP280;54354;44.724;11.284;2024-02-21T09:45:28;102557.25;;;17.57
67509;BMP280;54354;44.724;11.284;2024-02-21T09:50:49;102556.53;;;17.77
67509;BMP280;54354;44.724;11.284;2024-02-21T09:53:15;102549.94;;;17.81
67509;BMP280;54354;44.724;11.284;2024-02-21T09:55:43;102543.72;;;17.84
67509;BMP280;54354;44.724;11.284;2024-02-21T09:58:09;102549.28;;;17.94
67509;BMP280;54354;44.724;11.284;2024-02-21T10:00:37;102540.56;;;17.90
67509;BMP280;54354;44.724;11.284;2024-02-21T10:03:03;102558.06;;;17.98
67509;BMP280;54354;44.724;11.284;2024-02-21T10:05:36;102538.78;;;18.03
67509;BMP280;54354;44.724;11.284;2024-02-21T10:08:03;102542.09;;;18.10
67509;BMP280;54354;44.724;11.284;2024-02-21T10:10:29;102546.97;;;18.15
67509;BMP280;54354;44.724;11.284;2024-02-21T10:12:56;102548.06;;;18.18
67509;BMP280;54354;44.724;11.284;2024-02-21T10:15:22;102533.84;;;18.21
67509;BMP280;54354;44.724;11.284;2024-02-21T10:17:58;102544.41;;;18.28
67509;BMP280;54354;44.724;11.284;2024-02-21T10:20:24;102535.78;;;18.37
67509;BMP280;54354;44.724;11.284;2024-02-21T10:23:00;102527.41;;;18.35
67509;BMP280;54354;44.724;11.284;2024-02-21T10:25:27;102537.16;;;18.45
67509;BMP280;54354;44.724;11.284;2024-02-21T10:27:52;102523.78;;;18.41
67509;BMP280;54354;44.724;11.284;2024-02-21T10:30:18;102534.88;;;18.43
67509;BMP280;54354;44.724;11.284;2024-02-21T10:32:50;102524.81;;;18.48
67509;BMP280;54354;44.724;11.284;2024-02-21T10:35:32;102516.69;;;18.51
67509;BMP280;54354;44.724;11.284;2024-02-21T10:37:59;102513.38;;;18.63
67509;BMP280;54354;44.724;11.284;2024-02-21T10:40:29;102509.94;;;18.63
67509;BMP280;54354;44.724;11.284;2024-02-21T10:43:00;102512.53;;;18.66
67509;BMP280;54354;44.724;11.284;2024-02-21T10:45:29;102510.19;;;18.68
67509;BMP280;54354;44.724;11.284;2024-02-21T10:48:10;102504.56;;;18.63
67509;BMP280;54354;44.724;11.284;2024-02-21T10:50:44;102510.69;;;19.25
67509;BMP280;54354;44.724;11.284;2024-02-21T10:56:31;102506.81;;;18.81
67509;BMP280;54354;44.724;11.284;2024-02-21T10:58:57;102506.47;;;18.79
67509;BMP280;54354;44.724;11.284;2024-02-21T11:01:23;102510.56;;;18.83
67509;BMP280;54354;44.724;11.284;2024-02-21T11:03:52;102504.44;;;18.83
67509;BMP280;54354;44.724;11.284;2024-02-21T11:06:19;102501.19;;;18.91
67509;BMP280;54354;44.724;11.284;2024-02-21T11:08:45;102508.66;;;19.00
67509;BMP280;54354;44.724;11.284;2024-02-21T11:11:13;102501.56;;;19.06
67509;BMP280;54354;44.724;11.284;2024-02-21T11:13:43;102504.50;;;19.12
67509;BMP280;54354;44.724;11.284;2024-02-21T11:16:21;102494.22;;;19.10
67509;BMP280;54354;44.724;11.284;2024-02-21T11:18:47;102498.75;;;19.13
67509;BMP280;54354;44.724;11.284;2024-02-21T11:21:12;102485.09;;;19.20
67509;BMP280;54354;44.724;11.284;2024-02-21T11:23:38;102488.56;;;19.34
67509;BMP280;54354;44.724;11.284;2024-02-21T11:26:07;102469.25;;;19.39
67509;BMP280;54354;44.724;11.284;2024-02-21T11:28:33;102467.81;;;19.50
67509;BMP280;54354;44.724;11.284;2024-02-21T11:31:13;102460.81;;;19.53
67509;BMP280;54354;44.724;11.284;2024-02-21T11:33:42;102456.63;;;19.65
67509;BMP280;54354;44.724;11.284;2024-02-21T11:36:10;102450.06;;;19.66
67509;BMP280;54354;44.724;11.284;2024-02-21T11:38:36;102441.91;;;19.69
67509;BMP280;54354;44.724;11.284;2024-02-21T11:41:01;102430.31;;;19.72
67509;BMP280;54354;44.724;11.284;2024-02-21T11:43:27;102428.56;;;19.78
67509;BMP280;54354;44.724;11.284;2024-02-21T11:46:02;102415.34;;;19.84
67509;BMP280;54354;44.724;11.284;2024-02-21T11:48:29;102407.72;;;19.95
67509;BMP280;54354;44.724;11.284;2024-02-21T11:50:56;102407.50;;;20.02
67509;BMP280;54354;44.724;11.284;2024-02-21T11:53:21;102398.03;;;20.10
67509;BMP280;54354;44.724;11.284;2024-02-21T11:55:47;102395.13;;;20.18
67509;BMP280;54354;44.724;11.284;2024-02-21T11:58:13;102393.41;;;20.24
67509;BMP280;54354;44.724;11.284;2024-02-21T12:00:38;102390.31;;;20.34
67509;BMP280;54354;44.724;11.284;2024-02-21T12:03:05;102382.91;;;20.38
67509;BMP280;54354;44.724;11.284;2024-02-21T12:05:31;102378.78;;;20.47
67509;BMP280;54354;44.724;11.284;2024-02-21T12:07:57;102367.59;;;20.48
67509;BMP280;54354;44.724;11.284;2024-02-21T12:10:23;102371.97;;;20.55
67509;BMP280;54354;44.724;11.284;2024-02-21T12:12:51;102369.91;;;20.59
67509;BMP280;54354;44.724;11.284;2024-02-21T12:15:18;102363.09;;;20.67
67509;BMP280;54354;44.724;11.284;2024-02-21T12:17:44;102365.84;;;20.76
67509;BMP280;54354;44.724;11.284;2024-02-21T12:20:10;102365.28;;;20.81
67509;BMP280;54354;44.724;11.284;2024-02-21T12:22:41;102354.50;;;20.81
67509;BMP280;54354;44.724;11.284;2024-02-21T12:27:43;102356.69;;;21.17
67509;BMP280;54354;44.724;11.284;2024-02-21T12:30:09;102353.47;;;21.10
67509;BMP280;54354;44.724;11.284;2024-02-21T12:32:36;102354.97;;;21.11
67509;BMP280;54354;44.724;11.284;2024-02-21T12:35:01;102344.53;;;21.13
67509;BMP280;54354;44.724;11.284;2024-02-21T12:37:28;102344.81;;;21.15
67509;BMP280;54354;44.724;11.284;2024-02-21T12:39:54;102340.81;;;21.19
67509;BMP280;54354;44.724;11.284;2024-02-21T12:42:23;102335.28;;;21.23
67509;BMP280;54354;44.724;11.284;2024-02-21T12:44:49;102339.47;;;21.24
67509;BMP280;54354;44.724;11.284;2024-02-21T12:47:14;102335.13;;;21.26
67509;BMP280;54354;44.724;11.284;2024-02-21T12:49:40;102334.41;;;21.26
67509;BMP280;54354;44.724;11.284;2024-02-21T12:52:06;102325.59;;;21.25
67509;BMP280;54354;44.724;11.284;2024-02-21T12:54:32;102330.69;;;21.33
67509;BMP280;54354;44.724;11.284;2024-02-21T12:56:57;102324.56;;;21.41
67509;BMP280;54354;44.724;11.284;2024-02-21T12:59:23;102312.91;;;21.44
67509;BMP280;54354;44.724;11.284;2024-02-21T13:01:49;102319.38;;;21.56
67509;BMP280;54354;44.724;11.284;2024-02-21T13:04:14;102307.53;;;21.63
67509;BMP280;54354;44.724;11.284;2024-02-21T13:06:40;102299.63;;;21.68
67509;BMP280;54354;44.724;11.284;2024-02-21T13:09:05;102292.56;;;21.71
67509;BMP280;54354;44.724;11.284;2024-02-21T13:11:36;102287.50;;;21.73
67509;BMP280;54354;44.724;11.284;2024-02-21T13:14:03;102291.25;;;21.84
67509;BMP280;54354;44.724;11.284;2024-02-21T13:16:29;102289.59;;;21.87
67509;BMP280;54354;44.724;11.284;2024-02-21T13:18:54;102276.25;;;21.93
67509;BMP280;54354;44.724;11.284;2024-02-21T13:21:20;102272.38;;;22.03
67509;BMP280;54354;44.724;11.284;2024-02-21T13:23:45;102265.78;;;22.04
67509;BMP280;54354;44.724;11.284;2024-02-21T13:26:11;102264.88;;;22.07
67509;BMP280;54354;44.724;11.284;2024-02-21T13:28:38;102262.66;;;22.05
67509;BMP280;54354;44.724;11.284;2024-02-21T13:31:03;102259.47;;;22.07
67509;BMP280;54354;44.724;11.284;2024-02-21T13:33:30;102260.97;;;22.08
67509;BMP280;54354;44.724;11.284;2024-02-21T13:36:04;102255.88;;;22.10
67509;BMP280;54354;44.724;11.284;2024-02-21T13:38:30;102248.09;;;22.12
67509;BMP280;54354;44.724;11.284;2024-02-21T13:40:55;102244.63;;;22.11
67509;BMP280;54354;44.724;11.284;2024-02-21T13:43:21;102242.22;;;22.13
67509;BMP280;54354;44.724;11.284;2024-02-21T13:45:56;102229.78;;;22.07
67509;BMP280;54354;44.724;11.284;2024-02-21T13:48:23;102245.22;;;22.15